createdAt,value
2022-11-19T00:01:25.643Z,66.75
2022-11-19T00:16:25.953Z,74.88
2022-11-19T00:31:26.333Z,68.08
2022-11-19T00:46:25.870Z,81.02
2022-11-19T01:01:25.884Z,74.74
2022-11-19T01:16:25.966Z,77.64
2022-11-19T01:31:26.016Z,69.07
2022-11-19T01:46:26.003Z,76.57
2022-11-19T02:01:26.100Z,72.51
2022-11-19T02:16:26.079Z,77.88
2022-11-19T02:31:26.251Z,85.30
2022-11-19T02:46:26.123Z,74.36
2022-11-19T03:01:26.379Z,74.30
2022-11-19T03:16:26.230Z,76.10
2022-11-19T03:31:26.363Z,69.80
2022-11-19T03:46:26.318Z,72.11
2022-11-19T04:01:26.326Z,72.09
2022-11-19T04:16:26.470Z,76.07
2022-11-19T04:31:26.443Z,76.64
2022-11-19T04:46:26.458Z,71.96
2022-11-19T05:01:26.444Z,72.84
2022-11-19T05:16:26.590Z,72.40
2022-11-19T05:31:26.555Z,71.49
2022-11-19T05:46:26.616Z,74.42
2022-11-19T06:01:26.576Z,75.46
2022-11-19T06:16:26.600Z,72.63
2022-11-19T06:31:26.537Z,72.47
2022-11-19T06:46:26.546Z,81.48
2022-11-19T07:01:26.746Z,82.73
2022-11-19T07:16:27.739Z,73.05
2022-11-19T07:31:26.861Z,72.86
2022-11-19T07:46:26.733Z,78.39
2022-11-19T08:01:26.787Z,73.94
2022-11-19T08:16:26.837Z,76.82
2022-11-19T08:31:26.855Z,76.20
2022-11-19T08:46:26.954Z,78.46
2022-11-19T09:01:26.906Z,73.95
2022-11-19T09:16:27.094Z,77.45
2022-11-19T09:31:27.096Z,69.51
2022-11-19T09:46:26.976Z,71.65
2022-11-19T10:01:27.112Z,80.76
2022-11-19T10:16:27.107Z,81.07
2022-11-19T10:31:27.063Z,75.37
2022-11-19T10:46:27.210Z,80.47
2022-11-19T11:01:27.265Z,74.55
2022-11-19T11:16:27.184Z,84.57
2022-11-19T11:31:27.367Z,78.58
2022-11-19T11:46:27.159Z,83.20
2022-11-19T12:01:27.152Z,73.32
2022-11-19T12:16:27.394Z,83.70
2022-11-19T12:31:30.030Z,80.76
2022-11-19T12:46:27.456Z,73.49
2022-11-19T13:01:27.491Z,68.63
2022-11-19T13:16:27.488Z,76.87
2022-11-19T13:31:27.530Z,75.02
2022-11-19T13:46:27.440Z,86.97
2022-11-19T14:01:27.664Z,92.67
2022-11-19T14:16:27.566Z,73.81
2022-11-19T14:31:27.506Z,71.57
2022-11-19T14:46:27.587Z,77.71
2022-11-19T15:01:27.729Z,82.36
2022-11-19T15:16:27.557Z,82.22
2022-11-19T15:31:27.658Z,90.17
2022-11-19T15:46:30.500Z,85.68
2022-11-19T16:01:27.931Z,74.61
2022-11-19T16:16:27.807Z,74.80
2022-11-19T16:31:28.315Z,92.66
2022-11-19T16:46:27.776Z,92.20
2022-11-19T17:01:29.658Z,91.40
2022-11-19T17:16:27.824Z,87.80
2022-11-19T17:31:28.020Z,77.16
2022-11-19T17:46:27.636Z,80.47
2022-11-19T18:01:27.812Z,80.79
2022-11-19T18:16:27.772Z,79.10
2022-11-19T18:31:27.762Z,80.97
2022-11-19T18:46:27.465Z,83.61
2022-11-19T19:01:27.681Z,78.41
2022-11-19T19:16:27.464Z,91.57
2022-11-19T19:31:27.422Z,89.45
2022-11-19T19:46:27.415Z,85.89
2022-11-19T20:01:28.062Z,90.19
2022-11-19T20:16:27.407Z,82.44
2022-11-19T20:31:27.535Z,90.18
2022-11-19T20:46:27.624Z,97.44
2022-11-19T21:01:31.168Z,87.80
2022-11-19T21:16:27.638Z,84.70
2022-11-19T21:31:27.602Z,89.46
2022-11-19T21:46:27.503Z,94.45
2022-11-19T22:01:27.555Z,94.14
2022-11-19T22:16:27.505Z,86.72
2022-11-19T22:31:27.559Z,86.45
2022-11-19T22:46:27.420Z,91.25
2022-11-19T23:01:27.395Z,95.14
2022-11-19T23:16:27.510Z,102.99
2022-11-19T23:31:27.490Z,105.65
2022-11-19T23:46:27.564Z,103.71
